createdAt,value
2023-02-13T00:00:27.357Z,-1.10
2023-02-13T00:05:29.503Z,-0.80
2023-02-13T00:10:33.361Z,-0.90
2023-02-13T00:15:35.715Z,-0.90
2023-02-13T00:20:37.796Z,-0.90
2023-02-13T00:25:41.962Z,-1.00
2023-02-13T00:30:43.833Z,-1.00
2023-02-13T00:35:46.578Z,-0.90
2023-02-13T00:40:50.467Z,-1.00
2023-02-13T00:45:52.673Z,-1.10
2023-02-13T00:50:54.904Z,-1.10
2023-02-13T00:55:58.851Z,-0.90
2023-02-13T01:01:01.473Z,-0.80
2023-02-13T01:06:03.772Z,-0.60
2023-02-13T01:11:07.994Z,-0.40
2023-02-13T01:16:10.242Z,-0.20
2023-02-13T01:21:18.602Z,-0.10
2023-02-13T01:26:24.397Z,0.10
2023-02-13T01:31:27.315Z,0.10
2023-02-13T01:36:29.357Z,0.20
2023-02-13T01:41:33.096Z,0.40
2023-02-13T01:46:38.893Z,0.50
2023-02-13T01:51:42.300Z,0.50
2023-02-13T01:56:48.869Z,0.60
2023-02-13T02:01:51.794Z,0.50
2023-02-13T02:06:57.349Z,0.60
2023-02-13T02:12:06.248Z,0.70
2023-02-13T02:17:09.031Z,0.80
2023-02-13T02:22:36.391Z,0.90
2023-02-13T02:28:04.467Z,1.00
2023-02-13T02:33:19.919Z,1.10
2023-02-13T02:38:41.792Z,1.10
2023-02-13T02:43:57.554Z,1.10
2023-02-13T02:49:24.579Z,1.10
2023-02-13T02:54:50.058Z,1.20
2023-02-13T03:00:11.774Z,1.20
2023-02-13T03:05:49.124Z,1.10
2023-02-13T03:11:08.880Z,1.10
2023-02-13T03:16:32.202Z,1.30
2023-02-13T03:22:05.481Z,1.40
2023-02-13T03:27:13.361Z,1.30
2023-02-13T03:32:25.489Z,1.20
2023-02-13T03:37:46.188Z,1.10
2023-02-13T03:42:54.033Z,1.20
2023-02-13T03:48:00.279Z,1.20
2023-02-13T03:53:07.747Z,1.20
2023-02-13T03:58:32.346Z,1.20
2023-02-13T04:03:42.688Z,1.30
2023-02-13T04:08:46.726Z,1.30
2023-02-13T04:13:53.377Z,1.50
2023-02-13T04:18:58.107Z,1.50
2023-02-13T04:24:01.472Z,1.50
2023-02-13T04:29:03.711Z,1.50
2023-02-13T04:34:06.188Z,1.50
2023-02-13T04:39:09.912Z,1.60
2023-02-13T04:44:12.274Z,1.70
2023-02-13T04:49:14.397Z,1.60
2023-02-13T04:54:17.730Z,1.70
2023-02-13T04:59:20.885Z,1.60
2023-02-13T05:04:23.466Z,1.70
2023-02-13T05:09:27.736Z,1.70
2023-02-13T05:14:30.038Z,1.70
2023-02-13T05:19:33.028Z,1.70
2023-02-13T05:24:37.646Z,1.70
2023-02-13T05:29:40.554Z,1.60
2023-02-13T05:34:43.264Z,1.70
2023-02-13T05:39:47.162Z,1.70
2023-02-13T05:44:49.295Z,1.80
2023-02-13T05:49:51.136Z,1.80
2023-02-13T05:54:54.741Z,1.80
2023-02-13T05:59:57.142Z,1.80
2023-02-13T06:04:59.261Z,1.70
2023-02-13T06:10:03.278Z,1.70
2023-02-13T06:15:06.400Z,1.60
2023-02-13T06:20:09.996Z,1.60
2023-02-13T06:25:13.986Z,1.50
2023-02-13T06:30:17.884Z,1.50
2023-02-13T06:35:20.273Z,1.50
2023-02-13T06:40:24.327Z,1.50
2023-02-13T06:45:27.047Z,1.50
2023-02-13T06:50:29.503Z,1.50
2023-02-13T06:55:33.405Z,1.50
2023-02-13T07:00:39.224Z,1.60
2023-02-13T07:05:42.212Z,1.50
2023-02-13T07:10:45.760Z,1.40
2023-02-13T07:15:47.794Z,1.40
2023-02-13T07:20:50.031Z,1.40
2023-02-13T07:25:54.044Z,1.40
2023-02-13T07:30:56.932Z,1.40
2023-02-13T07:35:59.268Z,1.50
2023-02-13T07:41:03.541Z,1.50
2023-02-13T07:46:06.253Z,1.50
2023-02-13T07:51:08.822Z,1.50
2023-02-13T07:56:12.929Z,1.50
2023-02-13T08:01:17.822Z,1.70
2023-02-13T08:06:21.044Z,1.80
2023-02-13T08:11:47.162Z,2.00
2023-02-13T08:16:49.693Z,1.90
2023-02-13T08:21:52.176Z,1.90
2023-02-13T08:26:56.889Z,2.00
2023-02-13T08:31:59.066Z,2.30
2023-02-13T08:37:02.567Z,2.50
2023-02-13T08:42:06.015Z,2.80
2023-02-13T08:47:08.528Z,3.10
2023-02-13T08:52:10.447Z,3.10
2023-02-13T08:57:13.826Z,3.20
2023-02-13T09:02:16.055Z,3.40
2023-02-13T09:07:18.554Z,3.50
2023-02-13T09:12:22.306Z,3.70
2023-02-13T09:17:24.707Z,3.70
2023-02-13T09:22:26.971Z,3.90
2023-02-13T09:27:30.535Z,4.00
2023-02-13T09:32:34.377Z,3.90
2023-02-13T09:37:36.640Z,3.80
2023-02-13T09:42:40.741Z,4.00
2023-02-13T09:47:44.219Z,4.10
2023-02-13T09:52:48.087Z,3.80
2023-02-13T09:57:59.572Z,4.10
2023-02-13T10:03:22.500Z,4.10
2023-02-13T10:08:43.730Z,4.20
2023-02-13T10:14:08.057Z,4.30
2023-02-13T10:19:20.474Z,4.70
2023-02-13T10:24:32.180Z,5.10
2023-02-13T10:30:02.671Z,5.40
2023-02-13T10:35:16.994Z,5.60
2023-02-13T10:40:20.576Z,5.60
2023-02-13T10:45:49.747Z,5.60
2023-02-13T10:51:05.898Z,8.00
2023-02-13T10:56:25.545Z,10.10
2023-02-13T11:01:35.326Z,11.90
2023-02-13T11:06:39.933Z,11.30
2023-02-13T11:11:44.224Z,11.70
2023-02-13T11:16:53.999Z,12.20
2023-02-13T11:21:58.884Z,12.10
2023-02-13T11:27:04.765Z,12.30
2023-02-13T11:32:23.014Z,12.40
2023-02-13T11:37:27.759Z,14.60
2023-02-13T11:42:33.506Z,15.20
2023-02-13T11:47:43.188Z,16.10
2023-02-13T11:52:46.314Z,14.90
2023-02-13T11:57:59.310Z,14.80
2023-02-13T12:03:02.859Z,15.40
2023-02-13T12:08:10.468Z,15.20
2023-02-13T12:13:16.906Z,16.10
2023-02-13T12:18:24.964Z,17.20
2023-02-13T12:23:35.482Z,17.10
2023-02-13T12:29:03.452Z,17.00
2023-02-13T12:34:31.895Z,15.00
2023-02-13T12:39:36.930Z,16.40
2023-02-13T12:44:55.371Z,16.40
2023-02-13T12:50:19.260Z,18.20
2023-02-13T12:55:35.249Z,19.70
2023-02-13T13:00:49.298Z,19.70
2023-02-13T13:06:12.955Z,19.20
2023-02-13T13:11:29.638Z,16.80
2023-02-13T13:16:45.472Z,17.30
2023-02-13T13:21:54.662Z,18.20
2023-02-13T13:26:58.188Z,18.60
2023-02-13T13:32:04.982Z,20.00
2023-02-13T13:37:18.425Z,19.80
2023-02-13T13:42:27.095Z,18.00
2023-02-13T13:47:47.495Z,20.10
2023-02-13T13:53:10.583Z,20.80
2023-02-13T13:58:23.402Z,19.40
2023-02-13T14:03:36.671Z,19.10
2023-02-13T14:09:31.085Z,20.30
2023-02-13T14:14:54.381Z,19.50
2023-02-13T14:19:58.515Z,18.00
2023-02-13T14:25:03.999Z,19.10
2023-02-13T14:30:09.499Z,20.00
2023-02-13T14:35:22.265Z,21.00
2023-02-13T14:40:47.940Z,20.00
2023-02-13T14:45:56.748Z,20.30
2023-02-13T14:51:00.278Z,19.20
2023-02-13T14:56:07.167Z,19.40
2023-02-13T15:01:25.138Z,18.60
2023-02-13T15:06:30.042Z,17.60
2023-02-13T15:11:39.069Z,16.70
2023-02-13T15:16:43.150Z,16.30
2023-02-13T15:21:52.046Z,15.70
2023-02-13T15:27:03.079Z,14.40
2023-02-13T15:32:21.879Z,12.30
2023-02-13T15:37:26.363Z,10.70
2023-02-13T15:42:32.561Z,10.70
2023-02-13T15:47:36.995Z,10.30
2023-02-13T15:52:41.382Z,9.60
2023-02-13T15:57:44.727Z,9.50
2023-02-13T16:02:52.847Z,9.30
2023-02-13T16:07:57.571Z,9.00
2023-02-13T16:13:02.372Z,8.50
2023-02-13T16:18:13.693Z,7.70
2023-02-13T16:23:19.948Z,6.90
2023-02-13T16:28:26.075Z,6.20
2023-02-13T16:33:34.906Z,5.50
2023-02-13T16:38:39.247Z,5.00
2023-02-13T16:43:47.394Z,4.70
2023-02-13T16:49:15.121Z,4.40
2023-02-13T16:54:27.768Z,4.10
2023-02-13T16:59:41.731Z,3.80
2023-02-13T17:04:51.250Z,3.60
2023-02-13T17:10:02.809Z,3.40
2023-02-13T17:15:07.797Z,3.30
2023-02-13T17:20:25.979Z,3.00
2023-02-13T17:25:31.013Z,3.00
2023-02-13T17:30:35.923Z,2.90
2023-02-13T17:35:40.540Z,2.80
2023-02-13T17:40:44.996Z,2.60
2023-02-13T17:45:50.284Z,2.50
2023-02-13T17:50:54.872Z,2.40
2023-02-13T17:55:58.199Z,2.20
2023-02-13T18:01:03.810Z,2.10
2023-02-13T18:06:13.229Z,2.10
2023-02-13T18:11:17.172Z,1.90
2023-02-13T18:16:23.260Z,1.90
2023-02-13T18:21:28.003Z,1.70
2023-02-13T18:26:31.846Z,1.70
2023-02-13T18:31:36.299Z,1.60
2023-02-13T18:36:45.433Z,1.50
2023-02-13T18:41:49.357Z,1.30
2023-02-13T18:46:55.005Z,1.20
2023-02-13T18:52:03.436Z,1.10
2023-02-13T18:57:10.576Z,1.00
2023-02-13T19:02:14.736Z,0.90
2023-02-13T19:07:22.381Z,0.90
2023-02-13T19:12:24.954Z,0.80
2023-02-13T19:17:31.050Z,0.60
2023-02-13T19:22:36.166Z,0.50
2023-02-13T19:27:41.154Z,0.50
2023-02-13T19:32:45.141Z,0.60
2023-02-13T19:37:51.014Z,0.60
2023-02-13T19:42:55.952Z,0.50
2023-02-13T19:48:04.314Z,0.40
2023-02-13T19:53:12.698Z,0.20
2023-02-13T19:58:15.840Z,0.20
2023-02-13T20:03:20.894Z,0.10
2023-02-13T20:08:26.631Z,0.00
2023-02-13T20:13:32.736Z,-0.10
2023-02-13T20:18:38.643Z,-0.30
2023-02-13T20:23:49.301Z,-0.40
2023-02-13T20:28:53.816Z,-0.40
2023-02-13T20:33:57.711Z,-0.50
2023-02-13T20:39:04.783Z,-0.50
2023-02-13T20:45:09.028Z,-0.40
2023-02-13T20:50:28.397Z,-0.40
2023-02-13T20:55:58.468Z,-0.30
2023-02-13T21:01:14.179Z,-0.50
2023-02-13T21:06:18.890Z,-0.50
2023-02-13T21:11:24.937Z,-0.50
2023-02-13T21:16:34.758Z,-0.60
2023-02-13T21:21:39.744Z,-0.30
2023-02-13T21:26:47.053Z,-0.50
2023-02-13T21:31:51.487Z,-0.60
2023-02-13T21:36:55.460Z,-0.40
2023-02-13T21:41:59.919Z,-0.30
2023-02-13T21:47:02.389Z,0.00
2023-02-13T21:52:04.528Z,0.20
2023-02-13T21:57:08.365Z,0.40
2023-02-13T22:02:12.211Z,0.50
2023-02-13T22:07:14.327Z,0.60
2023-02-13T22:12:17.956Z,0.70
2023-02-13T22:17:22.184Z,0.90
2023-02-13T22:22:24.455Z,0.90
2023-02-13T22:27:28.182Z,0.90
2023-02-13T22:32:30.672Z,0.90
2023-02-13T22:37:33.166Z,1.00
2023-02-13T22:42:37.082Z,1.10
2023-02-13T22:47:39.311Z,1.30
2023-02-13T22:52:41.845Z,1.40
2023-02-13T22:57:47.143Z,1.40
2023-02-13T23:02:50.099Z,1.40
2023-02-13T23:07:52.377Z,1.50
2023-02-13T23:12:56.112Z,1.60
2023-02-13T23:18:18.133Z,1.70
2023-02-13T23:23:21.327Z,1.80
2023-02-13T23:28:25.097Z,1.80
2023-02-13T23:33:27.522Z,1.80
2023-02-13T23:38:29.801Z,1.90
2023-02-13T23:43:33.390Z,1.90
2023-02-13T23:48:36.057Z,2.00
2023-02-13T23:53:38.506Z,1.90
2023-02-13T23:58:42.200Z,2.00
